Time;durP1;ratioP1;P1;durP2;ratioP2;P2;SDS_P1;SDS_P2;PMS_P1;PMS_P2;Temp;Humidity;BMP_temperature;BMP_pressure;BME280_temperature;BME280_humidity;BME280_pressure;Samples;Min_cycle;Max_cycle;Signal;HPM_P1;HPM_P2
2022/09/16 00:07:02;;;;;;;2.90;0.53;;;;;;;;;;21035666;28;20293;-76
2022/09/16 00:17:04;;;;;;;1.30;0.63;;;;;;;;;;21037629;28;20208;-76
2022/09/16 00:27:07;;;;;;;1.10;0.67;;;;;;;;;;21078703;28;20256;-76
2022/09/16 00:37:09;;;;;;;0.77;0.60;;;;;;;;;;21050643;28;20221;-75
2022/09/16 00:47:16;;;;;;;2.73;0.57;;;17.80;99.90;;;;;;21045626;28;20249;-75
2022/09/16 00:57:24;;;;;;;0.70;0.43;;;17.60;99.90;;;;;;21067541;28;20580;-75
2022/09/16 01:07:30;;;;;;;1.33;0.63;;;;;;;;;;21016789;28;20287;-75
2022/09/16 01:17:50;;;;;;;0.73;0.50;;;;;;;;;;21048429;28;20212;-75
2022/09/16 01:27:52;;;;;;;0.60;0.50;;;;;;;;;;21047410;28;20232;-75
2022/09/16 01:37:54;;;;;;;0.47;0.47;;;;;;;;;;21069972;28;20219;-76
2022/09/16 01:48:09;;;;;;;2.67;0.53;;;17.60;99.90;;;;;;21121393;28;20301;-75
2022/09/16 01:58:25;;;;;;;0.67;0.50;;;17.30;99.90;;;;;;21067653;28;20344;-76
2022/09/16 02:08:35;;;;;;;0.70;0.50;;;17.30;99.90;;;;;;21044173;28;20225;-76
2022/09/16 02:18:41;;;;;;;0.90;0.50;;;17.30;99.90;;;;;;21059186;28;20576;-75
2022/09/16 02:28:44;;;;;;;1.57;0.70;;;;;;;;;;21042555;28;20224;-75
2022/09/16 02:38:49;;;;;;;1.00;0.60;;;17.20;99.90;;;;;;21041821;28;20208;-75
2022/09/16 02:49:11;;;;;;;1.60;0.70;;;;;;;;;;21057148;28;20236;-76
2022/09/16 02:59:14;;;;;;;1.90;1.00;;;17.20;99.90;;;;;;21040179;28;20212;-75
2022/09/16 03:09:17;;;;;;;0.80;0.57;;;;;;;;;;21038371;28;20236;-75
2022/09/16 03:19:27;;;;;;;1.10;0.53;;;17.30;99.90;;;;;;21038353;28;20205;-75
2022/09/16 03:29:29;;;;;;;1.30;0.40;;;;;;;;;;21037278;28;20582;-76
2022/09/16 03:39:32;;;;;;;0.97;0.57;;;17.20;99.90;;;;;;21042180;28;20242;-75
2022/09/16 03:49:34;;;;;;;1.63;0.77;;;;;;;;;;21052607;28;20250;-75
2022/09/16 03:59:36;;;;;;;1.00;0.70;;;;;;;;;;21077626;28;20696;-75
2022/09/16 04:09:38;;;;;;;1.53;0.70;;;;;;;;;;21050901;28;20270;-78
2022/09/16 04:19:40;;;;;;;1.30;0.60;;;;;;;;;;21077655;28;20216;-76
2022/09/16 04:29:42;;;;;;;0.80;0.60;;;;;;;;;;21053374;28;20269;-75
2022/09/16 04:39:44;;;;;;;1.10;0.60;;;;;;;;;;21035923;28;20212;-75
2022/09/16 04:49:46;;;;;;;1.07;0.53;;;;;;;;;;21035934;28;20563;-75
2022/09/16 04:59:48;;;;;;;0.87;0.67;;;;;;;;;;21042776;28;20220;-75
2022/09/16 05:09:51;;;;;;;1.10;0.53;;;;;;;;;;21060155;28;20380;-75
2022/09/16 05:19:52;;;;;;;1.80;0.70;;;;;;;;;;21047345;28;20755;-75
2022/09/16 05:29:55;;;;;;;1.00;0.60;;;;;;;;;;21040268;28;20220;-75
2022/09/16 05:39:56;;;;;;;2.50;0.77;;;;;;;;;;21048722;28;20212;-75
2022/09/16 05:49:58;;;;;;;1.53;0.80;;;;;;;;;;21075697;28;20219;-75
2022/09/16 06:00:00;;;;;;;0.93;0.70;;;;;;;;;;21078446;28;20224;-75
2022/09/16 06:10:02;;;;;;;2.70;0.80;;;;;;;;;;21062308;28;20273;-75
2022/09/16 06:20:06;;;;;;;0.67;0.60;;;;;;;;;;21090892;28;20556;-75
2022/09/16 06:30:08;;;;;;;1.40;0.87;;;;;;;;;;21052065;28;20770;-75
2022/09/16 06:40:10;;;;;;;1.83;0.90;;;;;;;;;;21043528;28;20239;-75
2022/09/16 06:50:12;;;;;;;1.60;1.03;;;;;;;;;;21057166;28;20220;-74
2022/09/16 07:00:15;;;;;;;1.67;0.77;;;;;;;;;;21077706;28;20232;-73
2022/09/16 07:10:17;;;;;;;1.33;0.70;;;;;;;;;;21055077;28;20242;-73
2022/09/16 07:20:18;;;;;;;0.80;0.60;;;;;;;;;;21069142;28;20254;-73
2022/09/16 07:30:20;;;;;;;1.43;0.50;;;;;;;;;;21038221;28;20225;-73
2022/09/16 07:40:22;;;;;;;1.37;0.73;;;;;;;;;;20954354;28;20706;-73
2022/09/16 07:50:24;;;;;;;0.67;0.47;;;;;;;;;;20969718;28;20287;-74
2022/09/16 08:00:27;;;;;;;2.40;0.50;;;;;;;;;;21053157;28;20244;-74
2022/09/16 08:10:29;;;;;;;0.50;0.40;;;;;;;;;;21024608;28;20542;-74
2022/09/16 08:20:31;;;;;;;0.87;0.50;;;;;;;;;;21051339;28;20228;-75
2022/09/16 08:30:33;;;;;;;1.07;0.70;;;;;;;;;;21042868;28;20215;-76
2022/09/16 08:40:36;;;;;;;0.53;0.40;;;;;;;;;;21040685;28;20629;-74
2022/09/16 08:50:41;;;;;;;2.07;0.60;;;17.00;99.90;;;;;;21049426;28;20281;-76
2022/09/16 09:00:45;;;;;;;1.40;0.40;;;;;;;;;;21051701;28;20300;-75
2022/09/16 09:10:52;;;;;;;0.33;0.30;;;;;;;;;;21146624;22;20226;-75
2022/09/16 09:21:13;;;;;;;0.60;0.40;;;17.30;99.90;;;;;;21230187;27;20223;-74
2022/09/16 09:31:34;;;;;;;1.97;0.50;;;;;;;;;;21227991;27;20207;-75
2022/09/16 09:41:56;;;;;;;0.40;0.20;;;;;;;;;;21221144;27;20211;-74
2022/09/16 09:52:03;;;;;;;1.43;0.40;;;17.50;99.90;;;;;;21294048;27;20227;-75
2022/09/16 10:02:13;;;;;;;0.83;0.50;;;;;;;;;;21281722;27;20214;-75
2022/09/16 10:12:34;;;;;;;0.40;0.30;;;17.60;99.90;;;;;;21297440;27;20342;-75
2022/09/16 10:22:36;;;;;;;0.37;0.30;;;;;;;;;;21248742;27;20741;-75
2022/09/16 10:32:55;;;;;;;0.87;0.40;;;18.00;99.90;;;;;;21225269;27;20245;-76
2022/09/16 10:43:12;;;;;;;0.53;0.30;;;17.90;99.90;;;;;;21270350;27;20225;-75
2022/09/16 10:53:21;;;;;;;0.33;0.30;;;;;;;;;;21267031;27;20246;-76
2022/09/16 11:03:29;;;;;;;2.23;0.47;;;;;;;;;;21252333;27;20296;-76
2022/09/16 11:13:40;;;;;;;1.07;0.37;;;;;;;;;;21245278;27;20218;-75
2022/09/16 11:24:03;;;;;;;1.90;0.47;;;19.00;99.90;;;;;;21293646;27;20220;-74
2022/09/16 11:34:23;;;;;;;0.50;0.30;;;19.00;99.90;;;;;;21224497;27;20703;-76
2022/09/16 11:44:51;;;;;;;0.80;0.47;;;19.40;99.90;;;;;;21213395;27;20542;-76
2022/09/16 11:54:53;;;;;;;5.03;2.00;;;;;;;;;;21215815;27;20358;-77
2022/09/16 12:05:04;;;;;;;0.33;0.30;;;;;;;;;;21227522;27;20285;-76
2022/09/16 12:15:12;;;;;;;1.03;0.40;;;;;;;;;;21252131;27;20285;-76
2022/09/16 12:25:18;;;;;;;1.37;0.33;;;;;;;;;;21247584;27;20221;-76
2022/09/16 12:35:27;;;;;;;0.83;0.33;;;;;;;;;;21203426;27;20213;-75
2022/09/16 12:45:56;;;;;;;1.33;0.30;;;20.10;99.90;;;;;;21237336;27;20244;-77
2022/09/16 12:56:13;;;;;;;0.93;0.40;;;20.20;99.90;;;;;;21233055;27;20245;-77
2022/09/16 13:06:23;;;;;;;1.30;0.30;;;;;;;;;;21212881;27;20633;-78
2022/09/16 13:16:33;;;;;;;1.50;0.30;;;;;;;;;;21200565;27;20238;-76
2022/09/16 13:26:42;;;;;;;0.50;0.23;;;;;;;;;;21286229;27;20218;-76
2022/09/16 13:36:44;;;;;;;0.60;0.40;;;;;;;;;;21255938;27;20273;-74
2022/09/16 13:46:46;;;;;;;0.83;0.30;;;;;;;;;;21256826;27;20226;-76
2022/09/16 13:56:48;;;;;;;0.30;0.30;;;;;;;;;;21208178;27;20212;-77
2022/09/16 14:07:08;;;;;;;0.20;0.20;;;19.00;99.90;;;;;;21298284;27;20630;-76
2022/09/16 14:17:23;;;;;;;2.13;0.50;;;18.30;99.90;;;;;;21281388;27;20211;-77
2022/09/16 14:27:32;;;;;;;0.33;0.30;;;;;;;;;;21237316;27;20223;-76
2022/09/16 14:37:35;;;;;;;0.33;0.30;;;;;;;;;;21190980;27;20211;-77
2022/09/16 14:47:38;;;;;;;0.37;0.30;;;;;;;;;;21210556;27;20439;-77
2022/09/16 14:57:40;;;;;;;0.50;0.30;;;;;;;;;;21207629;27;20275;-77
2022/09/16 15:07:44;;;;;;;2.33;0.30;;;;;;;;;;21260242;27;20215;-77
2022/09/16 15:17:59;;;;;;;0.50;0.37;;;17.60;99.90;;;;;;21265427;27;20228;-78
2022/09/16 15:28:16;;;;;;;0.20;0.20;;;17.80;99.90;;;;;;21233100;27;20220;-76
2022/09/16 15:38:22;;;;;;;0.20;0.20;;;;;;;;;;21270256;27;20278;-75
2022/09/16 15:48:30;;;;;;;0.20;0.20;;;17.30;99.90;;;;;;21317651;27;20225;-76
2022/09/16 15:58:32;;;;;;;0.23;0.20;;;;;;;;;;21222064;27;20232;-76
2022/09/16 16:08:46;;;;;;;0.20;0.20;;;;;;;;;;21227552;27;20222;-76
2022/09/16 16:18:47;;;;;;;0.20;0.20;;;;;;;;;;21225929;27;20202;-76
2022/09/16 16:28:49;;;;;;;0.43;0.27;;;;;;;;;;21179102;27;20223;-76
2022/09/16 16:38:51;;;;;;;0.37;0.20;;;;;;;;;;21190900;28;20219;-76
2022/09/16 16:48:54;;;;;;;0.63;0.23;;;;;;;;;;21186816;27;20226;-76
2022/09/16 16:58:57;;;;;;;1.00;0.20;;;;;;;;;;21196224;22;20243;-72
2022/09/16 17:09:00;;;;;;;0.10;0.10;;;16.80;99.90;;;;;;21120569;28;20225;-72
2022/09/16 17:19:02;;;;;;;1.13;0.20;;;;;;;;;;21128486;28;20282;-73
2022/09/16 17:29:06;;;;;;;0.40;0.30;;;;;;;;;;21103176;28;20241;-73
2022/09/16 17:39:17;;;;;;;0.33;0.20;;;17.10;99.90;;;;;;21071983;28;20356;-73
2022/09/16 17:49:22;;;;;;;0.10;0.10;;;;;;;;;;21071586;28;20216;-73
2022/09/16 17:59:26;;;;;;;0.50;0.20;;;;;;;;;;21053679;28;20290;-73
2022/09/16 18:09:28;;;;;;;0.30;0.20;;;;;;;;;;21117809;28;20659;-72
2022/09/16 18:19:30;;;;;;;0.43;0.30;;;;;;;;;;21154454;28;20250;-76
2022/09/16 18:29:35;;;;;;;0.20;0.20;;;;;;;;;;21130307;28;20231;-75
2022/09/16 18:39:40;;;;;;;0.93;0.30;;;;;;;;;;21106892;28;20224;-74
2022/09/16 18:49:46;;;;;;;0.30;0.30;;;16.60;99.90;;;;;;21149887;28;20764;-74
2022/09/16 18:59:53;;;;;;;0.20;0.20;;;16.30;99.90;;;;;;21128407;28;20215;-75
2022/09/16 19:10:01;;;;;;;0.20;0.20;;;;;;;;;;21148404;28;20223;-75
2022/09/16 19:20:04;;;;;;;0.20;0.20;;;;;;;;;;21151999;28;20219;-75
2022/09/16 19:30:08;;;;;;;0.20;0.20;;;;;;;;;;21089734;28;20216;-75
2022/09/16 19:40:10;;;;;;;0.60;0.30;;;;;;;;;;21102335;28;20708;-75
2022/09/16 19:50:12;;;;;;;0.20;0.20;;;;;;;;;;21148919;28;20777;-74
2022/09/16 20:00:14;;;;;;;0.30;0.23;;;;;;;;;;21150307;28;20294;-74
2022/09/16 20:10:17;;;;;;;0.20;0.20;;;;;;;;;;21146550;28;20207;-73
2022/09/16 20:20:21;;;;;;;0.23;0.20;;;;;;;;;;21147135;28;20200;-74
2022/09/16 20:30:24;;;;;;;0.20;0.20;;;;;;;;;;21148694;28;20833;-74
2022/09/16 20:40:25;;;;;;;0.17;0.17;;;;;;;;;;21143875;28;20573;-74
2022/09/16 20:50:27;;;;;;;0.40;0.30;;;;;;;;;;21147221;28;20273;-74
2022/09/16 21:00:31;;;;;;;0.40;0.30;;;;;;;;;;21154198;28;20243;-74
2022/09/16 21:10:35;;;;;;;0.30;0.30;;;;;;;;;;21144926;28;20667;-75
2022/09/16 21:20:37;;;;;;;2.00;0.70;;;;;;;;;;21165072;28;20216;-75
2022/09/16 21:30:39;;;;;;;0.80;0.57;;;;;;;;;;21163706;28;20253;-75
2022/09/16 21:40:41;;;;;;;1.50;0.90;;;;;;;;;;21142700;28;20280;-75
2022/09/16 21:50:43;;;;;;;0.60;0.50;;;;;;;;;;21141094;28;20292;-74
2022/09/16 22:00:45;;;;;;;0.50;0.40;;;;;;;;;;21147034;28;20219;-75
2022/09/16 22:10:47;;;;;;;1.13;0.50;;;;;;;;;;21151048;28;20216;-75
2022/09/16 22:20:49;;;;;;;1.70;0.80;;;;;;;;;;21140883;28;20489;-74
2022/09/16 22:30:51;;;;;;;0.60;0.30;;;;;;;;;;21150975;28;20646;-73
2022/09/16 22:40:58;;;;;;;0.30;0.30;;;15.00;99.90;;;;;;21149663;28;20262;-73
2022/09/16 22:51:00;;;;;;;0.30;0.30;;;;;;;;;;21157983;28;20212;-74
2022/09/16 23:01:10;;;;;;;0.30;0.30;;;14.80;99.90;;;;;;21177368;22;20220;-73
2022/09/16 23:11:13;;;;;;;0.60;0.30;;;;;;;;;;21173865;28;20242;-72
2022/09/16 23:21:17;;;;;;;0.37;0.20;;;;;;;;;;21152024;28;20276;-72
2022/09/16 23:31:21;;;;;;;0.30;0.30;;;14.70;99.90;;;;;;21147389;28;20695;-72
2022/09/16 23:41:26;;;;;;;0.77;0.30;;;14.70;99.90;;;;;;21135499;28;20212;-72
2022/09/16 23:51:31;;;;;;;1.37;0.40;;;;;;;;;;21112981;28;20241;-71
